createdAt,value
2018-12-06T00:01:03.931Z,0.10
2018-12-06T00:03:35.374Z,0.10
2018-12-06T00:06:05.177Z,0.10
2018-12-06T00:08:34.827Z,0.10
2018-12-06T00:11:04.615Z,0.00
2018-12-06T00:13:34.438Z,0.10
2018-12-06T00:16:04.090Z,0.00
2018-12-06T00:19:09.558Z,0.10
2018-12-06T00:21:39.243Z,0.10
2018-12-06T00:24:09.244Z,0.10
2018-12-06T00:26:39.074Z,0.10
2018-12-06T00:29:08.672Z,0.00
2018-12-06T00:31:38.256Z,0.10
2018-12-06T00:34:07.872Z,0.10
2018-12-06T00:36:37.447Z,0.10
2018-12-06T00:39:07.611Z,0.10
2018-12-06T00:41:38.162Z,0.10
2018-12-06T00:44:08.312Z,0.10
2018-12-06T00:46:37.924Z,0.10
2018-12-06T00:49:07.543Z,0.10
2018-12-06T00:51:37.267Z,0.10
2018-12-06T00:54:06.872Z,0.10
2018-12-06T00:56:36.656Z,0.10
2018-12-06T00:59:06.391Z,0.10
2018-12-06T01:01:35.863Z,0.10
2018-12-06T01:04:05.659Z,0.00
2018-12-06T01:06:35.206Z,0.10
2018-12-06T01:09:06.003Z,0.10
2018-12-06T01:11:36.231Z,0.10
2018-12-06T01:14:06.482Z,0.10
2018-12-06T01:16:36.099Z,0.10
2018-12-06T01:19:05.774Z,0.10
2018-12-06T01:21:35.262Z,0.10
2018-12-06T01:24:04.811Z,0.10
2018-12-06T01:26:34.848Z,0.10
2018-12-06T01:29:04.736Z,0.10
2018-12-06T01:31:34.408Z,0.10
2018-12-06T01:34:04.333Z,0.20
2018-12-06T01:36:33.896Z,0.10
2018-12-06T01:39:04.660Z,0.20
2018-12-06T01:41:36.859Z,0.20
2018-12-06T01:44:06.636Z,0.20
2018-12-06T01:46:36.214Z,0.20
2018-12-06T01:49:05.849Z,0.20
2018-12-06T01:51:35.642Z,0.20
2018-12-06T01:54:05.346Z,0.20
2018-12-06T01:56:35.212Z,0.20
2018-12-06T01:59:04.874Z,0.20
2018-12-06T02:01:34.630Z,0.20
2018-12-06T02:04:05.052Z,0.20
2018-12-06T02:06:34.732Z,0.30
2018-12-06T02:09:07.003Z,0.30
2018-12-06T02:11:40.374Z,0.30
2018-12-06T02:14:10.480Z,0.30
2018-12-06T02:16:40.398Z,0.30
2018-12-06T02:19:09.735Z,0.30
2018-12-06T02:21:39.422Z,0.30
2018-12-06T02:24:08.930Z,0.20
2018-12-06T02:26:38.580Z,0.30
2018-12-06T02:29:08.601Z,0.30
2018-12-06T02:31:38.242Z,0.30
2018-12-06T02:34:07.711Z,0.30
2018-12-06T02:36:37.450Z,0.30
2018-12-06T02:39:08.955Z,0.30
2018-12-06T02:41:38.406Z,0.30
2018-12-06T02:44:08.475Z,0.30
2018-12-06T02:46:38.191Z,0.30
2018-12-06T02:49:07.921Z,0.30
2018-12-06T02:51:38.343Z,0.30
2018-12-06T02:54:08.052Z,0.30
2018-12-06T02:56:37.565Z,0.30
2018-12-06T02:59:07.540Z,0.30
2018-12-06T03:01:37.477Z,0.30
2018-12-06T03:04:07.014Z,0.30
2018-12-06T03:06:36.620Z,0.30
2018-12-06T03:09:07.511Z,0.40
2018-12-06T03:11:39.535Z,0.30
2018-12-06T03:14:09.229Z,0.30
2018-12-06T03:16:39.495Z,0.30
2018-12-06T03:19:10.046Z,0.30
2018-12-06T03:21:39.448Z,0.40
2018-12-06T03:24:09.154Z,0.40
2018-12-06T03:26:38.879Z,0.40
2018-12-06T03:29:08.473Z,0.40
2018-12-06T03:31:38.289Z,0.40
2018-12-06T03:34:07.821Z,0.40
2018-12-06T03:36:37.707Z,0.40
2018-12-06T03:39:08.624Z,0.40
2018-12-06T03:41:38.242Z,0.40
2018-12-06T03:44:07.983Z,0.40
2018-12-06T03:46:37.574Z,0.50
2018-12-06T03:49:07.203Z,0.50
2018-12-06T03:51:36.698Z,0.50
2018-12-06T03:54:06.192Z,0.50
2018-12-06T03:56:35.854Z,0.50
2018-12-06T03:59:05.472Z,0.50
2018-12-06T04:01:35.407Z,0.50
2018-12-06T04:04:05.294Z,0.50
2018-12-06T04:06:35.024Z,0.50
2018-12-06T04:09:07.279Z,0.50
2018-12-06T04:11:37.603Z,0.50
2018-12-06T04:14:07.115Z,0.50
2018-12-06T04:16:37.043Z,0.50
2018-12-06T04:19:07.583Z,0.50
2018-12-06T04:21:37.543Z,0.50
2018-12-06T04:24:07.247Z,0.50
2018-12-06T04:26:37.116Z,0.50
2018-12-06T04:29:06.722Z,0.50
2018-12-06T04:31:37.821Z,0.50
2018-12-06T04:34:09.555Z,0.50
2018-12-06T04:36:39.536Z,0.50
2018-12-06T04:39:09.054Z,0.50
2018-12-06T04:41:38.695Z,0.50
2018-12-06T04:44:09.207Z,0.50
2018-12-06T04:46:38.763Z,0.50
2018-12-06T04:49:08.487Z,0.50
2018-12-06T04:51:38.001Z,0.50
2018-12-06T04:54:07.914Z,0.50
2018-12-06T04:56:37.911Z,0.40
2018-12-06T04:59:07.595Z,0.40
2018-12-06T05:01:37.051Z,0.40
2018-12-06T05:04:06.881Z,0.40
2018-12-06T05:06:36.706Z,0.40
2018-12-06T05:09:08.127Z,0.40
2018-12-06T05:11:37.890Z,0.40
2018-12-06T05:14:07.626Z,0.40
2018-12-06T05:16:37.202Z,0.40
2018-12-06T05:19:07.218Z,0.40
2018-12-06T05:21:37.092Z,0.40
2018-12-06T05:24:06.667Z,0.40
2018-12-06T05:26:36.575Z,0.40
2018-12-06T05:29:06.191Z,0.40
2018-12-06T05:31:35.887Z,0.40
2018-12-06T05:34:05.530Z,0.50
2018-12-06T05:36:35.334Z,0.50
2018-12-06T05:39:07.037Z,0.50
2018-12-06T05:41:36.841Z,0.50
2018-12-06T05:44:07.409Z,0.50
2018-12-06T05:46:37.343Z,0.50
2018-12-06T05:49:07.017Z,0.50
2018-12-06T05:51:36.658Z,0.50
2018-12-06T05:54:06.246Z,0.50
2018-12-06T05:56:36.069Z,0.60
2018-12-06T05:59:05.808Z,0.60
2018-12-06T06:01:35.290Z,0.60
2018-12-06T06:04:05.175Z,0.60
2018-12-06T06:06:35.015Z,0.60
2018-12-06T06:09:06.833Z,0.70
2018-12-06T06:11:36.660Z,0.70
2018-12-06T06:14:06.307Z,0.70
2018-12-06T06:16:36.536Z,0.70
2018-12-06T06:19:06.979Z,0.80
2018-12-06T06:21:36.901Z,0.80
2018-12-06T06:24:06.398Z,0.80
2018-12-06T06:26:36.477Z,0.80
2018-12-06T06:29:06.186Z,0.80
2018-12-06T06:31:35.856Z,0.80
2018-12-06T06:34:05.411Z,0.90
2018-12-06T06:36:35.437Z,0.90
2018-12-06T06:39:07.314Z,0.90
2018-12-06T06:41:37.400Z,0.90
2018-12-06T06:44:07.115Z,1.00
2018-12-06T06:46:36.995Z,1.00
2018-12-06T06:49:13.581Z,1.00
2018-12-06T06:51:38.293Z,1.00
2018-12-06T06:54:07.786Z,0.90
2018-12-06T06:56:37.630Z,1.00
2018-12-06T06:59:07.005Z,0.90
2018-12-06T07:01:36.816Z,1.00
2018-12-06T07:04:07.009Z,0.90
2018-12-06T07:06:37.236Z,1.00
2018-12-06T07:09:08.417Z,1.00
2018-12-06T07:11:37.950Z,1.00
2018-12-06T07:14:08.044Z,1.00
2018-12-06T07:16:38.550Z,1.00
2018-12-06T07:19:08.042Z,1.00
2018-12-06T07:21:38.259Z,1.00
2018-12-06T07:24:08.676Z,1.00
2018-12-06T07:26:38.912Z,1.00
2018-12-06T07:29:08.909Z,1.00
2018-12-06T07:31:38.725Z,1.00
2018-12-06T07:34:09.214Z,1.00
2018-12-06T07:36:39.227Z,1.00
2018-12-06T07:39:09.427Z,1.10
2018-12-06T07:41:39.079Z,1.10
2018-12-06T07:44:08.868Z,1.10
2018-12-06T07:46:38.891Z,1.10
2018-12-06T07:49:08.600Z,1.10
2018-12-06T07:51:38.423Z,1.10
2018-12-06T07:54:08.083Z,1.10
2018-12-06T07:56:39.086Z,1.10
2018-12-06T07:59:08.867Z,1.10
2018-12-06T08:01:38.430Z,1.10
2018-12-06T08:04:08.127Z,1.10
2018-12-06T08:06:37.522Z,1.10
2018-12-06T08:09:09.365Z,1.20
2018-12-06T08:11:39.281Z,1.10
2018-12-06T08:14:08.953Z,1.10
2018-12-06T08:16:38.903Z,1.20
2018-12-06T08:19:08.766Z,1.20
2018-12-06T08:21:38.527Z,1.20
2018-12-06T08:24:08.125Z,1.20
2018-12-06T08:26:38.182Z,1.20
2018-12-06T08:29:07.823Z,1.30
2018-12-06T08:31:37.434Z,1.30
2018-12-06T08:34:07.076Z,1.30
2018-12-06T08:36:36.823Z,1.30
2018-12-06T08:39:07.375Z,1.30
2018-12-06T08:41:36.931Z,1.30
2018-12-06T08:44:06.537Z,1.30
2018-12-06T08:46:36.449Z,1.30
2018-12-06T08:49:06.176Z,1.40
2018-12-06T08:51:35.847Z,1.40
2018-12-06T08:54:05.923Z,1.40
2018-12-06T08:56:35.693Z,1.40
2018-12-06T08:59:05.719Z,1.40
2018-12-06T09:01:35.793Z,1.50
2018-12-06T09:04:05.743Z,1.40
2018-12-06T09:06:35.619Z,1.40
2018-12-06T09:09:07.648Z,1.40
2018-12-06T09:11:38.209Z,1.50
2018-12-06T09:14:07.805Z,1.50
2018-12-06T09:16:37.935Z,1.50
2018-12-06T09:19:09.239Z,1.50
2018-12-06T09:21:39.837Z,1.50
2018-12-06T09:24:09.935Z,1.60
2018-12-06T09:26:39.623Z,1.60
2018-12-06T09:29:10.089Z,1.50
2018-12-06T09:31:40.267Z,1.60
2018-12-06T09:34:10.075Z,1.60
2018-12-06T09:36:39.757Z,1.60
2018-12-06T09:39:10.601Z,1.60
2018-12-06T09:41:40.404Z,1.60
2018-12-06T09:44:10.195Z,1.60
2018-12-06T09:46:39.968Z,1.60
2018-12-06T09:49:09.702Z,1.60
2018-12-06T09:51:39.320Z,1.60
2018-12-06T09:54:08.896Z,1.60
2018-12-06T09:56:38.668Z,1.60
2018-12-06T09:59:10.742Z,1.70
2018-12-06T10:01:40.553Z,1.70
2018-12-06T10:04:10.631Z,1.70
2018-12-06T10:06:40.345Z,1.70
2018-12-06T10:09:10.485Z,1.70
2018-12-06T10:11:40.382Z,1.70
2018-12-06T10:14:10.364Z,1.80
2018-12-06T10:16:40.050Z,1.80
2018-12-06T10:19:10.012Z,1.70
2018-12-06T10:21:39.849Z,1.80
2018-12-06T10:24:09.619Z,1.80
2018-12-06T10:26:39.227Z,1.80
2018-12-06T10:29:08.828Z,1.80
2018-12-06T10:31:38.605Z,1.80
2018-12-06T10:34:08.212Z,1.90
2018-12-06T10:36:37.971Z,1.80
2018-12-06T10:39:08.683Z,1.90
2018-12-06T10:41:38.767Z,1.80
2018-12-06T10:44:08.201Z,1.90
2018-12-06T10:46:37.680Z,1.90
2018-12-06T10:49:07.699Z,1.90
2018-12-06T10:51:44.212Z,1.90
2018-12-06T10:54:13.936Z,2.00
2018-12-06T10:56:43.558Z,2.00
2018-12-06T10:59:13.393Z,2.00
2018-12-06T11:01:49.676Z,2.00
2018-12-06T11:04:19.743Z,2.00
2018-12-06T11:06:49.268Z,2.00
2018-12-06T11:09:18.967Z,2.00
2018-12-06T11:11:48.813Z,2.10
2018-12-06T11:14:18.374Z,2.10
2018-12-06T11:16:48.272Z,2.10
2018-12-06T11:19:18.278Z,2.10
2018-12-06T11:21:47.842Z,2.10
2018-12-06T11:24:17.387Z,2.10
2018-12-06T11:26:47.055Z,2.10
2018-12-06T11:29:16.745Z,2.10
2018-12-06T11:31:46.432Z,2.10
2018-12-06T11:34:16.291Z,2.10
2018-12-06T11:36:46.126Z,2.10
2018-12-06T11:39:15.811Z,2.10
2018-12-06T11:41:46.126Z,2.10
2018-12-06T11:44:15.837Z,2.10
2018-12-06T11:46:45.546Z,2.10
2018-12-06T11:49:15.455Z,2.10
2018-12-06T11:51:44.948Z,2.10
2018-12-06T11:54:14.866Z,2.10
2018-12-06T11:56:44.620Z,2.10
2018-12-06T11:59:14.211Z,2.10
2018-12-06T12:01:44.068Z,2.10
2018-12-06T12:04:14.026Z,2.10
2018-12-06T12:06:43.937Z,2.10
2018-12-06T12:09:13.855Z,2.10
2018-12-06T12:11:43.490Z,2.10
2018-12-06T12:14:15.530Z,2.10
2018-12-06T12:16:45.454Z,2.10
2018-12-06T12:19:15.154Z,2.10
2018-12-06T12:21:44.975Z,2.10
2018-12-06T12:24:14.664Z,2.10
2018-12-06T12:26:44.487Z,2.10
2018-12-06T12:29:14.123Z,2.10
2018-12-06T12:31:43.778Z,2.10
2018-12-06T12:34:13.272Z,2.10
2018-12-06T12:36:44.160Z,2.10
2018-12-06T12:39:14.103Z,2.10
2018-12-06T12:41:44.086Z,2.10
2018-12-06T12:44:13.683Z,2.10
2018-12-06T12:46:43.193Z,2.10
2018-12-06T12:49:12.828Z,2.20
2018-12-06T12:51:43.027Z,2.20
2018-12-06T12:54:13.345Z,2.10
2018-12-06T12:56:42.964Z,2.20
2018-12-06T12:59:12.474Z,2.20
2018-12-06T13:01:42.131Z,2.20
2018-12-06T13:04:11.999Z,2.20
2018-12-06T13:06:41.527Z,2.10
2018-12-06T13:09:11.594Z,2.20
2018-12-06T13:11:41.674Z,2.20
2018-12-06T13:14:11.377Z,2.20
2018-12-06T13:16:40.958Z,2.20
2018-12-06T13:19:10.509Z,2.20
2018-12-06T13:21:40.375Z,2.20
2018-12-06T13:24:10.012Z,2.20
2018-12-06T13:26:39.787Z,2.10
2018-12-06T13:29:10.123Z,2.20
2018-12-06T13:31:39.766Z,2.10
2018-12-06T13:34:11.171Z,2.10
2018-12-06T13:36:44.488Z,2.10
2018-12-06T13:39:14.811Z,2.10
2018-12-06T13:41:44.434Z,2.10
2018-12-06T13:44:14.600Z,2.10
2018-12-06T13:46:44.351Z,2.10
2018-12-06T13:49:14.367Z,2.10
2018-12-06T13:51:44.141Z,2.20
2018-12-06T13:54:13.708Z,2.20
2018-12-06T13:56:43.216Z,2.20
2018-12-06T13:59:13.391Z,2.20
2018-12-06T14:01:43.594Z,2.20
2018-12-06T14:04:13.419Z,2.20
2018-12-06T14:06:43.020Z,2.20
2018-12-06T14:09:12.705Z,2.20
2018-12-06T14:11:42.487Z,2.20
2018-12-06T14:14:12.310Z,2.20
2018-12-06T14:16:42.023Z,2.10
2018-12-06T14:19:11.927Z,2.20
2018-12-06T14:21:41.687Z,2.20
2018-12-06T14:24:11.510Z,2.20
2018-12-06T14:26:41.337Z,2.20
2018-12-06T14:29:10.908Z,2.20
2018-12-06T14:31:40.511Z,2.20
2018-12-06T14:34:10.223Z,2.20
2018-12-06T14:36:40.303Z,2.20
2018-12-06T14:39:10.048Z,2.20
2018-12-06T14:41:40.724Z,2.10
2018-12-06T14:44:10.665Z,2.10
2018-12-06T14:46:40.891Z,2.10
2018-12-06T14:49:11.165Z,2.10
2018-12-06T14:51:40.899Z,2.10
2018-12-06T14:54:10.324Z,2.10
2018-12-06T14:56:40.109Z,2.10
2018-12-06T14:59:09.799Z,2.10
2018-12-06T15:01:39.586Z,2.10
2018-12-06T15:04:09.215Z,2.10
2018-12-06T15:06:38.781Z,2.20
2018-12-06T15:09:09.082Z,2.10
2018-12-06T15:11:39.166Z,2.20
2018-12-06T15:14:09.507Z,2.20
2018-12-06T15:16:39.460Z,2.20
2018-12-06T15:19:09.056Z,2.20
2018-12-06T15:21:38.903Z,2.20
2018-12-06T15:24:08.670Z,2.20
2018-12-06T15:26:38.439Z,2.20
2018-12-06T15:29:08.324Z,2.20
2018-12-06T15:31:38.366Z,2.20
2018-12-06T15:34:09.101Z,2.20
2018-12-06T15:36:39.908Z,2.20
2018-12-06T15:39:09.714Z,2.20
2018-12-06T15:41:40.583Z,2.20
2018-12-06T15:44:10.227Z,2.20
2018-12-06T15:46:40.155Z,2.20
2018-12-06T15:49:09.858Z,2.20
2018-12-06T15:51:39.469Z,2.20
2018-12-06T15:54:09.903Z,2.20
2018-12-06T15:56:39.855Z,2.20
2018-12-06T15:59:09.773Z,2.20
2018-12-06T16:01:39.706Z,2.30
2018-12-06T16:04:09.376Z,2.30
2018-12-06T16:06:38.990Z,2.30
2018-12-06T16:09:08.799Z,2.20
2018-12-06T16:11:40.651Z,2.20
2018-12-06T16:14:10.455Z,2.30
2018-12-06T16:16:40.161Z,2.30
2018-12-06T16:19:09.806Z,2.30
2018-12-06T16:21:40.028Z,2.30
2018-12-06T16:24:09.869Z,2.30
2018-12-06T16:26:39.773Z,2.30
2018-12-06T16:29:09.703Z,2.30
2018-12-06T16:31:39.313Z,2.30
2018-12-06T16:34:09.909Z,2.30
2018-12-06T16:36:41.329Z,2.30
2018-12-06T16:39:10.914Z,2.30
2018-12-06T16:41:41.003Z,2.30
2018-12-06T16:44:10.750Z,2.30
2018-12-06T16:46:40.669Z,2.30
2018-12-06T16:49:11.208Z,2.30
2018-12-06T16:51:40.966Z,2.30
2018-12-06T16:54:10.813Z,2.40
2018-12-06T16:56:40.598Z,2.40
2018-12-06T16:59:12.475Z,2.40
2018-12-06T17:01:41.975Z,2.40
2018-12-06T17:04:11.701Z,2.30
2018-12-06T17:06:41.628Z,2.30
2018-12-06T17:09:11.475Z,2.40
2018-12-06T17:11:41.338Z,2.40
2018-12-06T17:14:11.310Z,2.40
2018-12-06T17:16:40.765Z,2.40
2018-12-06T17:19:10.408Z,2.40
2018-12-06T17:21:40.239Z,2.40
2018-12-06T17:24:10.163Z,2.40
2018-12-06T17:26:40.051Z,2.50
2018-12-06T17:29:10.042Z,2.50
2018-12-06T17:31:39.820Z,2.50
2018-12-06T17:34:10.323Z,2.50
2018-12-06T17:36:41.112Z,2.50
2018-12-06T17:39:11.034Z,2.50
2018-12-06T17:41:41.541Z,2.50
2018-12-06T17:44:12.357Z,2.50
2018-12-06T17:46:42.645Z,2.50
2018-12-06T17:49:13.783Z,2.50
2018-12-06T17:51:44.766Z,2.50
2018-12-06T17:54:15.624Z,2.50
2018-12-06T17:56:48.826Z,2.50
2018-12-06T17:59:19.724Z,2.50
2018-12-06T18:01:49.963Z,2.50
2018-12-06T18:04:20.914Z,2.40
2018-12-06T18:06:51.736Z,2.40
2018-12-06T18:09:21.906Z,2.40
2018-12-06T18:11:51.626Z,2.40
2018-12-06T18:14:22.188Z,2.40
2018-12-06T18:16:52.058Z,2.40
2018-12-06T18:19:25.016Z,2.40
2018-12-06T18:21:55.538Z,2.40
2018-12-06T18:24:26.169Z,2.40
2018-12-06T18:26:57.004Z,2.30
2018-12-06T18:29:28.115Z,2.30
2018-12-06T18:31:57.944Z,2.30
2018-12-06T18:34:27.687Z,2.30
2018-12-06T18:36:57.831Z,2.30
2018-12-06T18:39:29.394Z,2.30
2018-12-06T18:41:59.313Z,2.30
2018-12-06T18:44:29.118Z,2.30
2018-12-06T18:46:59.031Z,2.30
2018-12-06T18:49:30.095Z,2.30
2018-12-06T18:52:00.239Z,2.30
2018-12-06T18:54:31.262Z,2.30
2018-12-06T18:57:00.993Z,2.40
2018-12-06T18:59:30.869Z,2.30
2018-12-06T19:02:00.649Z,2.40
2018-12-06T19:04:30.848Z,2.30
2018-12-06T19:07:01.546Z,2.30
2018-12-06T19:09:32.227Z,2.30
2018-12-06T19:12:02.144Z,2.30
2018-12-06T19:14:31.811Z,2.30
2018-12-06T19:17:02.294Z,2.30
2018-12-06T19:19:32.196Z,2.30
2018-12-06T19:22:01.847Z,2.30
2018-12-06T19:24:31.392Z,2.30
2018-12-06T19:27:01.231Z,2.30
2018-12-06T19:29:31.042Z,2.20
2018-12-06T19:32:01.265Z,2.20
2018-12-06T19:34:31.287Z,2.20
2018-12-06T19:37:01.325Z,2.20
2018-12-06T19:39:30.891Z,2.20
2018-12-06T19:42:00.600Z,2.20
2018-12-06T19:44:30.499Z,2.20
2018-12-06T19:47:00.403Z,2.30
2018-12-06T19:49:29.967Z,2.20
2018-12-06T19:52:00.124Z,2.30
2018-12-06T19:54:29.728Z,2.20
2018-12-06T19:57:00.591Z,2.30
2018-12-06T19:59:30.251Z,2.30
2018-12-06T20:02:00.419Z,2.30
2018-12-06T20:04:30.408Z,2.30
2018-12-06T20:07:00.014Z,2.30
2018-12-06T20:09:29.642Z,2.30
2018-12-06T20:11:59.806Z,2.30
2018-12-06T20:14:29.623Z,2.30
2018-12-06T20:16:59.235Z,2.30
2018-12-06T20:19:30.272Z,2.30
2018-12-06T20:21:59.772Z,2.30
2018-12-06T20:24:29.562Z,2.30
2018-12-06T20:26:59.219Z,2.40
2018-12-06T20:29:28.960Z,2.30
2018-12-06T20:31:58.918Z,2.40
2018-12-06T20:34:28.579Z,2.40
2018-12-06T20:36:58.414Z,2.40
2018-12-06T20:39:28.499Z,2.40
2018-12-06T20:41:58.815Z,2.40
2018-12-06T20:44:28.901Z,2.40
2018-12-06T20:46:59.015Z,2.40
2018-12-06T20:49:28.903Z,2.40
2018-12-06T20:52:00.723Z,2.40
2018-12-06T20:54:30.266Z,2.40
2018-12-06T20:57:00.973Z,2.50
2018-12-06T20:59:30.678Z,2.40
2018-12-06T21:02:00.910Z,2.40
2018-12-06T21:04:30.548Z,2.40
2018-12-06T21:06:59.997Z,2.40
2018-12-06T21:09:29.791Z,2.40
2018-12-06T21:11:59.739Z,2.50
2018-12-06T21:14:34.175Z,2.40
2018-12-06T21:17:04.540Z,2.40
2018-12-06T21:19:34.831Z,2.40
2018-12-06T21:22:04.830Z,2.40
2018-12-06T21:24:34.522Z,2.40
2018-12-06T21:27:04.240Z,2.40
2018-12-06T21:29:33.924Z,2.40
2018-12-06T21:32:03.513Z,2.40
2018-12-06T21:34:33.187Z,2.40
2018-12-06T21:37:03.111Z,2.40
2018-12-06T21:39:33.031Z,2.40
2018-12-06T21:42:02.958Z,2.40
2018-12-06T21:44:32.626Z,2.40
2018-12-06T21:47:02.245Z,2.40
2018-12-06T21:49:31.758Z,2.40
2018-12-06T21:52:01.435Z,2.40
2018-12-06T21:54:31.048Z,2.50
2018-12-06T21:57:01.436Z,2.50
2018-12-06T21:59:32.371Z,2.50
2018-12-06T22:02:13.299Z,2.50
2018-12-06T22:04:42.851Z,2.50
2018-12-06T22:07:12.444Z,2.50
2018-12-06T22:09:42.239Z,2.50
2018-12-06T22:12:12.675Z,2.50
2018-12-06T22:14:42.343Z,2.60
2018-12-06T22:17:11.796Z,2.60
2018-12-06T22:19:41.673Z,2.60
2018-12-06T22:22:11.553Z,2.60
2018-12-06T22:24:41.259Z,2.60
2018-12-06T22:27:11.524Z,2.60
2018-12-06T22:29:41.241Z,2.70
2018-12-06T22:32:10.729Z,2.70
2018-12-06T22:34:40.639Z,2.70
2018-12-06T22:37:10.575Z,2.70
2018-12-06T22:39:40.408Z,2.70
2018-12-06T22:42:10.864Z,2.70
2018-12-06T22:44:40.672Z,2.80
2018-12-06T22:47:10.275Z,2.80
2018-12-06T22:49:39.915Z,2.80
2018-12-06T22:52:09.767Z,2.80
2018-12-06T22:54:39.419Z,2.80
2018-12-06T22:57:09.155Z,2.80
2018-12-06T22:59:39.635Z,2.80
2018-12-06T23:02:09.194Z,2.80
2018-12-06T23:04:38.994Z,2.90
2018-12-06T23:07:09.535Z,2.90
2018-12-06T23:09:39.199Z,2.90
2018-12-06T23:12:09.151Z,2.90
2018-12-06T23:14:38.703Z,2.90
2018-12-06T23:17:08.226Z,2.90
2018-12-06T23:19:37.840Z,2.90
2018-12-06T23:22:07.959Z,2.90
2018-12-06T23:24:37.500Z,2.90
2018-12-06T23:27:07.293Z,2.90
2018-12-06T23:29:36.993Z,2.90
2018-12-06T23:32:06.708Z,2.90
2018-12-06T23:34:36.730Z,2.90
2018-12-06T23:37:06.697Z,2.90
2018-12-06T23:39:36.347Z,3.00
2018-12-06T23:42:06.152Z,3.00
2018-12-06T23:44:35.946Z,3.00
2018-12-06T23:47:06.019Z,3.00
2018-12-06T23:49:35.824Z,3.00
2018-12-06T23:52:05.815Z,3.00
2018-12-06T23:54:35.478Z,3.00
2018-12-06T23:57:05.491Z,3.00
2018-12-06T23:59:35.596Z,3.00
